PWSweather.com
Personal Weather Stations
Station Observations
KMILAPEE3
Lapeer Michigan, Lapeer, MI 48446

Lapeer MichiganLapeer, MI 48446

Lat: 43.057, Lon: -83.362

Elevation: 897

Station Type: Oregon Scientific WMR-968

Latest ConditionsUpdated 4:25:55 AM EDT Wednesday, Sep 2, 2015
Currently Today's Max Today's Min Today's Average
Temperature 67.6°F19.8°C 69.8°F21.0°C 67.6°F19.8°C 68.6°F20.3°C
Dew Point 61.1°F16.2°C 62.2°F16.8°C 56.8°F13.8°C 60.1°F15.6°C
Winds Calm Calm 3.7 mph WSW6.0 kmh WSW - 0.4 mph 0.6 kmh
Wind Gusts -- 6.5 mph10.5 kmh - -
Humidity 79% 79% 66% 74%
Pressure 29.09 in985.1 mb 29.12 in986.1 mb 29.09 in985.1 mb -
Hour Temp Dew Point Humidity Winds Wind Gusts Pressure Precip Precip Rate Daily Precip Total
04:25 AM 67.6°F19.8°C 61.1°F16.2°C 79% Calm Calm -- 29.09 in985.1 mb 0.00 in0.0 mm 0.00 in0.0 mm 0.00 in0.0 mm
04:24 AM 67.8°F19.9°C 60.9°F16.1°C 78% Calm Calm -- 29.09 in985.1 mb 0.00 in0.0 mm 0.00 in0.0 mm 0.00 in0.0 mm
04:23 AM 67.8°F19.9°C 60.9°F16.1°C 78% Calm Calm -- 29.09 in985.1 mb 0.00 in0.0 mm 0.00 in0.0 mm 0.00 in0.0 mm
04:22 AM 67.8°F19.9°C 60.9°F16.1°C 78% Calm Calm -- 29.09 in985.1 mb 0.00 in0.0 mm 0.00 in0.0 mm 0.00 in0.0 mm
04:21 AM 67.8°F19.9°C 60.9°F16.1°C 78% Calm Calm -- 29.09 in985.1 mb 0.00 in0.0 mm 0.00 in0.0 mm 0.00 in0.0 mm
04:20 AM 67.8°F19.9°C 60.9°F16.1°C 78% Calm Calm -- 29.09 in985.1 mb 0.00 in0.0 mm 0.00 in0.0 mm 0.00 in0.0 mm
04:19 AM 67.8°F19.9°C 60.9°F16.1°C 78% Calm Calm -- 29.09 in985.1 mb 0.00 in0.0 mm 0.00 in0.0 mm 0.00 in0.0 mm
04:18 AM 67.8°F19.9°C 60.9°F16.1°C 78% Calm Calm -- 29.09 in985.1 mb 0.00 in0.0 mm 0.00 in0.0 mm 0.00 in0.0 mm
04:17 AM 68.0°F20.0°C 61.1°F16.2°C 78% Calm Calm -- 29.09 in985.1 mb 0.00 in0.0 mm 0.00 in0.0 mm 0.00 in0.0 mm
04:16 AM 68.0°F20.0°C 61.1°F16.2°C 78% Calm Calm -- 29.09 in985.1 mb 0.00 in0.0 mm 0.00 in0.0 mm 0.00 in0.0 mm
04:15 AM 68.0°F20.0°C 61.1°F16.2°C 78% Calm Calm -- 29.09 in985.1 mb 0.00 in0.0 mm 0.00 in0.0 mm 0.00 in0.0 mm
04:14 AM 68.0°F20.0°C 61.1°F16.2°C 78% Calm Calm -- 29.09 in985.1 mb 0.00 in0.0 mm 0.00 in0.0 mm 0.00 in0.0 mm
04:13 AM 68.0°F20.0°C 61.1°F16.2°C 78% Calm Calm -- 29.09 in985.1 mb 0.00 in0.0 mm 0.00 in0.0 mm 0.00 in0.0 mm
04:12 AM 68.0°F20.0°C 61.1°F16.2°C 78% Calm Calm -- 29.09 in985.1 mb 0.00 in0.0 mm 0.00 in0.0 mm 0.00 in0.0 mm
04:11 AM 68.0°F20.0°C 61.1°F16.2°C 78% Calm Calm -- 29.09 in985.1 mb 0.00 in0.0 mm 0.00 in0.0 mm 0.00 in0.0 mm
04:10 AM 68.2°F20.1°C 61.3°F16.3°C 78% Calm Calm -- 29.09 in985.1 mb 0.00 in0.0 mm 0.00 in0.0 mm 0.00 in0.0 mm
04:09 AM 68.2°F20.1°C 61.3°F16.3°C 78% Calm Calm -- 29.09 in985.1 mb 0.00 in0.0 mm 0.00 in0.0 mm 0.00 in0.0 mm
04:08 AM 68.2°F20.1°C 61.3°F16.3°C 78% Calm Calm -- 29.09 in985.1 mb 0.00 in0.0 mm 0.00 in0.0 mm 0.00 in0.0 mm
04:07 AM 68.2°F20.1°C 61.3°F16.3°C 78% Calm Calm -- 29.09 in985.1 mb 0.00 in0.0 mm 0.00 in0.0 mm 0.00 in0.0 mm
04:06 AM 68.2°F20.1°C 61.3°F16.3°C 78% Calm Calm -- 29.09 in985.1 mb 0.00 in0.0 mm 0.00 in0.0 mm 0.00 in0.0 mm
04:05 AM 68.2°F20.1°C 61.3°F16.3°C 78% Calm Calm -- 29.09 in985.1 mb 0.00 in0.0 mm 0.00 in0.0 mm 0.00 in0.0 mm
04:04 AM 68.4°F20.2°C 61.5°F16.4°C 78% Calm Calm -- 29.09 in985.1 mb 0.00 in0.0 mm 0.00 in0.0 mm 0.00 in0.0 mm
04:03 AM 68.4°F20.2°C 61.5°F16.4°C 78% Calm Calm -- 29.09 in985.1 mb 0.00 in0.0 mm 0.00 in0.0 mm 0.00 in0.0 mm
04:01 AM 68.4°F20.2°C 61.5°F16.4°C 78% Calm Calm -- 29.09 in985.1 mb 0.00 in0.0 mm 0.00 in0.0 mm 0.00 in0.0 mm
04:00 AM 68.4°F20.2°C 61.5°F16.4°C 78% Calm Calm -- 29.09 in985.1 mb 0.00 in0.0 mm 0.00 in0.0 mm 0.00 in0.0 mm
03:59 AM 68.4°F20.2°C 61.5°F16.4°C 78% Calm Calm -- 29.09 in985.1 mb 0.00 in0.0 mm 0.00 in0.0 mm 0.00 in0.0 mm
03:58 AM 68.4°F20.2°C 61.5°F16.4°C 78% Calm Calm -- 29.09 in985.1 mb 0.00 in0.0 mm 0.00 in0.0 mm 0.00 in0.0 mm
03:57 AM 68.5°F20.3°C 61.6°F16.4°C 78% Calm Calm -- 29.09 in985.1 mb 0.00 in0.0 mm 0.00 in0.0 mm 0.00 in0.0 mm
03:56 AM 68.5°F20.3°C 61.6°F16.4°C 78% Calm Calm -- 29.09 in985.1 mb 0.00 in0.0 mm 0.00 in0.0 mm 0.00 in0.0 mm
03:55 AM 68.5°F20.3°C 61.6°F16.4°C 78% Calm Calm -- 29.09 in985.1 mb 0.00 in0.0 mm 0.00 in0.0 mm 0.00 in0.0 mm
03:54 AM 68.5°F20.3°C 61.6°F16.4°C 78% Calm Calm -- 29.09 in985.1 mb 0.00 in0.0 mm 0.00 in0.0 mm 0.00 in0.0 mm
03:53 AM 68.7°F20.4°C 61.8°F16.6°C 78% Calm Calm -- 29.09 in985.1 mb 0.00 in0.0 mm 0.00 in0.0 mm 0.00 in0.0 mm
03:52 AM 68.7°F20.4°C 61.8°F16.6°C 78% Calm Calm 3.9 mph6.3 kmh 29.09 in985.1 mb 0.00 in0.0 mm 0.00 in0.0 mm 0.00 in0.0 mm
03:51 AM 68.7°F20.4°C 61.8°F16.6°C 78% Calm Calm 3.9 mph6.3 kmh 29.09 in985.1 mb 0.00 in0.0 mm 0.00 in0.0 mm 0.00 in0.0 mm
03:50 AM 68.7°F20.4°C 61.8°F16.6°C 78% Calm Calm 3.9 mph6.3 kmh 29.09 in985.1 mb 0.00 in0.0 mm 0.00 in0.0 mm 0.00 in0.0 mm
03:49 AM 68.7°F20.4°C 61.8°F16.6°C 78% Calm Calm 3.9 mph6.3 kmh 29.09 in985.1 mb 0.00 in0.0 mm 0.00 in0.0 mm 0.00 in0.0 mm
03:48 AM 68.7°F20.4°C 61.8°F16.6°C 78% Calm Calm 3.9 mph6.3 kmh 29.09 in985.1 mb 0.00 in0.0 mm 0.00 in0.0 mm 0.00 in0.0 mm
03:47 AM 68.9°F20.5°C 62.0°F16.7°C 78% Calm Calm 3.9 mph6.3 kmh 29.09 in985.1 mb 0.00 in0.0 mm 0.00 in0.0 mm 0.00 in0.0 mm
03:46 AM 68.9°F20.5°C 62.0°F16.7°C 78% Calm Calm 3.9 mph6.3 kmh 29.09 in985.1 mb 0.00 in0.0 mm 0.00 in0.0 mm 0.00 in0.0 mm
03:45 AM 68.9°F20.5°C 62.0°F16.7°C 78% Calm Calm 4.5 mph7.2 kmh 29.09 in985.1 mb 0.00 in0.0 mm 0.00 in0.0 mm 0.00 in0.0 mm
03:44 AM 68.9°F20.5°C 62.0°F16.7°C 78% Calm Calm 4.5 mph7.2 kmh 29.09 in985.1 mb 0.00 in0.0 mm 0.00 in0.0 mm 0.00 in0.0 mm
03:43 AM 68.9°F20.5°C 62.0°F16.7°C 78% Calm Calm 4.5 mph7.2 kmh 29.09 in985.1 mb 0.00 in0.0 mm 0.00 in0.0 mm 0.00 in0.0 mm
03:42 AM 68.9°F20.5°C 62.0°F16.7°C 78% Calm Calm 4.5 mph7.2 kmh 29.09 in985.1 mb 0.00 in0.0 mm 0.00 in0.0 mm 0.00 in0.0 mm
03:41 AM 69.1°F20.6°C 62.2°F16.8°C 78% Calm Calm 4.5 mph7.2 kmh 29.09 in985.1 mb 0.00 in0.0 mm 0.00 in0.0 mm 0.00 in0.0 mm
03:40 AM 69.1°F20.6°C 62.2°F16.8°C 78% Calm Calm 4.5 mph7.2 kmh 29.09 in985.1 mb 0.00 in0.0 mm 0.00 in0.0 mm 0.00 in0.0 mm
03:39 AM 69.1°F20.6°C 62.2°F16.8°C 78% Calm Calm 4.5 mph7.2 kmh 29.09 in985.1 mb 0.00 in0.0 mm 0.00 in0.0 mm 0.00 in0.0 mm
03:38 AM 69.1°F20.6°C 62.2°F16.8°C 78% Calm Calm 4.5 mph7.2 kmh 29.09 in985.1 mb 0.00 in0.0 mm 0.00 in0.0 mm 0.00 in0.0 mm
03:37 AM 69.1°F20.6°C 62.2°F16.8°C 78% Calm Calm 4.5 mph7.2 kmh 29.09 in985.1 mb 0.00 in0.0 mm 0.00 in0.0 mm 0.00 in0.0 mm
03:36 AM 69.1°F20.6°C 61.8°F16.6°C 77% Calm Calm 4.5 mph7.2 kmh 29.09 in985.1 mb 0.00 in0.0 mm 0.00 in0.0 mm 0.00 in0.0 mm
03:35 AM 69.1°F20.6°C 61.8°F16.6°C 77% Calm Calm 3.9 mph6.3 kmh 29.09 in985.1 mb 0.00 in0.0 mm 0.00 in0.0 mm 0.00 in0.0 mm
03:34 AM 69.1°F20.6°C 61.8°F16.6°C 77% Calm Calm 3.9 mph6.3 kmh 29.09 in985.1 mb 0.00 in0.0 mm 0.00 in0.0 mm 0.00 in0.0 mm
03:33 AM 69.1°F20.6°C 62.2°F16.8°C 78% Calm Calm 3.9 mph6.3 kmh 29.09 in985.1 mb 0.00 in0.0 mm 0.00 in0.0 mm 0.00 in0.0 mm
03:32 AM 69.1°F20.6°C 62.2°F16.8°C 78% Calm Calm -- 29.09 in985.1 mb 0.00 in0.0 mm 0.00 in0.0 mm 0.00 in0.0 mm
03:31 AM 69.1°F20.6°C 61.8°F16.6°C 77% Calm Calm -- 29.09 in985.1 mb 0.00 in0.0 mm 0.00 in0.0 mm 0.00 in0.0 mm
03:30 AM 69.1°F20.6°C 61.8°F16.6°C 77% Calm Calm -- 29.09 in985.1 mb 0.00 in0.0 mm 0.00 in0.0 mm 0.00 in0.0 mm
03:29 AM 69.3°F20.7°C 62.0°F16.7°C 77% Calm Calm -- 29.09 in985.1 mb 0.00 in0.0 mm 0.00 in0.0 mm 0.00 in0.0 mm
03:28 AM 69.3°F20.7°C 62.0°F16.7°C 77% Calm Calm 3.2 mph5.1 kmh 29.09 in985.1 mb 0.00 in0.0 mm 0.00 in0.0 mm 0.00 in0.0 mm
03:27 AM 69.1°F20.6°C 61.8°F16.6°C 77% Calm Calm 3.9 mph6.3 kmh 29.09 in985.1 mb 0.00 in0.0 mm 0.00 in0.0 mm 0.00 in0.0 mm
03:26 AM 69.1°F20.6°C 61.8°F16.6°C 77% Calm Calm 3.9 mph6.3 kmh 29.09 in985.1 mb 0.00 in0.0 mm 0.00 in0.0 mm 0.00 in0.0 mm
03:25 AM 69.1°F20.6°C 61.8°F16.6°C 77% Calm Calm 3.9 mph6.3 kmh 29.09 in985.1 mb 0.00 in0.0 mm 0.00 in0.0 mm 0.00 in0.0 mm
03:24 AM 69.1°F20.6°C 61.8°F16.6°C 77% Calm Calm 3.9 mph6.3 kmh 29.09 in985.1 mb 0.00 in0.0 mm 0.00 in0.0 mm 0.00 in0.0 mm
03:23 AM 69.1°F20.6°C 61.8°F16.6°C 77% Calm Calm 3.9 mph6.3 kmh 29.09 in985.1 mb 0.00 in0.0 mm 0.00 in0.0 mm 0.00 in0.0 mm
03:22 AM 69.1°F20.6°C 61.8°F16.6°C 77% Calm Calm 5.8 mph9.3 kmh 29.09 in985.1 mb 0.00 in0.0 mm 0.00 in0.0 mm 0.00 in0.0 mm
03:21 AM 69.3°F20.7°C 62.0°F16.7°C 77% Calm Calm 5.8 mph9.3 kmh 29.09 in985.1 mb 0.00 in0.0 mm 0.00 in0.0 mm 0.00 in0.0 mm
03:20 AM 69.3°F20.7°C 62.0°F16.7°C 77% Calm Calm 5.8 mph9.3 kmh 29.09 in985.1 mb 0.00 in0.0 mm 0.00 in0.0 mm 0.00 in0.0 mm
03:19 AM 69.3°F20.7°C 62.0°F16.7°C 77% Calm Calm 5.8 mph9.3 kmh 29.09 in985.1 mb 0.00 in0.0 mm 0.00 in0.0 mm 0.00 in0.0 mm
03:18 AM 69.3°F20.7°C 62.0°F16.7°C 77% Calm Calm 5.8 mph9.3 kmh 29.09 in985.1 mb 0.00 in0.0 mm 0.00 in0.0 mm 0.00 in0.0 mm
03:17 AM 69.3°F20.7°C 62.0°F16.7°C 77% Calm Calm 5.8 mph9.3 kmh 29.09 in985.1 mb 0.00 in0.0 mm 0.00 in0.0 mm 0.00 in0.0 mm
03:16 AM 69.3°F20.7°C 62.0°F16.7°C 77% Calm Calm 5.8 mph9.3 kmh 29.09 in985.1 mb 0.00 in0.0 mm 0.00 in0.0 mm 0.00 in0.0 mm
03:15 AM 69.4°F20.8°C 62.1°F16.7°C 77% Calm Calm 5.8 mph9.3 kmh 29.09 in985.1 mb 0.00 in0.0 mm 0.00 in0.0 mm 0.00 in0.0 mm
03:14 AM 69.4°F20.8°C 62.1°F16.7°C 77% Calm Calm 5.8 mph9.3 kmh 29.09 in985.1 mb 0.00 in0.0 mm 0.00 in0.0 mm 0.00 in0.0 mm
03:13 AM 69.3°F20.7°C 62.0°F16.7°C 77% Calm Calm 5.8 mph9.3 kmh 29.09 in985.1 mb 0.00 in0.0 mm 0.00 in0.0 mm 0.00 in0.0 mm
03:12 AM 69.3°F20.7°C 62.0°F16.7°C 77% Calm Calm 3.9 mph6.3 kmh 29.09 in985.1 mb 0.00 in0.0 mm 0.00 in0.0 mm 0.00 in0.0 mm
03:11 AM 69.3°F20.7°C 62.0°F16.7°C 77% Calm Calm 3.9 mph6.3 kmh 29.09 in985.1 mb 0.00 in0.0 mm 0.00 in0.0 mm 0.00 in0.0 mm
03:10 AM 69.3°F20.7°C 62.0°F16.7°C 77% Calm Calm 3.9 mph6.3 kmh 29.09 in985.1 mb 0.00 in0.0 mm 0.00 in0.0 mm 0.00 in0.0 mm
03:09 AM 69.3°F20.7°C 62.0°F16.7°C 77% Calm Calm 3.9 mph6.3 kmh 29.09 in985.1 mb 0.00 in0.0 mm 0.00 in0.0 mm 0.00 in0.0 mm
03:08 AM 69.3°F20.7°C 62.0°F16.7°C 77% Calm Calm 3.9 mph6.3 kmh 29.09 in985.1 mb 0.00 in0.0 mm 0.00 in0.0 mm 0.00 in0.0 mm
03:07 AM 69.3°F20.7°C 62.0°F16.7°C 77% Calm Calm 3.9 mph6.3 kmh 29.09 in985.1 mb 0.00 in0.0 mm 0.00 in0.0 mm 0.00 in0.0 mm
03:06 AM 69.3°F20.7°C 62.0°F16.7°C 77% Calm Calm 3.9 mph6.3 kmh 29.09 in985.1 mb 0.00 in0.0 mm 0.00 in0.0 mm 0.00 in0.0 mm
03:05 AM 69.3°F20.7°C 62.0°F16.7°C 77% Calm Calm 3.9 mph6.3 kmh 29.09 in985.1 mb 0.00 in0.0 mm 0.00 in0.0 mm 0.00 in0.0 mm
03:04 AM 69.3°F20.7°C 61.6°F16.4°C 76% Calm Calm 3.9 mph6.3 kmh 29.09 in985.1 mb 0.00 in0.0 mm 0.00 in0.0 mm 0.00 in0.0 mm
03:03 AM 69.3°F20.7°C 61.6°F16.4°C 76% Calm Calm 3.9 mph6.3 kmh 29.09 in985.1 mb 0.00 in0.0 mm 0.00 in0.0 mm 0.00 in0.0 mm
03:02 AM 69.3°F20.7°C 61.6°F16.4°C 76% Calm Calm 3.2 mph5.1 kmh 29.09 in985.1 mb 0.00 in0.0 mm 0.00 in0.0 mm 0.00 in0.0 mm
03:01 AM 69.3°F20.7°C 61.6°F16.4°C 76% Calm Calm 3.2 mph5.1 kmh 29.09 in985.1 mb 0.00 in0.0 mm 0.00 in0.0 mm 0.00 in0.0 mm
03:00 AM 69.3°F20.7°C 61.6°F16.4°C 76% Calm Calm -- 29.09 in985.1 mb 0.00 in0.0 mm 0.00 in0.0 mm 0.00 in0.0 mm
02:59 AM 69.3°F20.7°C 61.6°F16.4°C 76% Calm Calm -- 29.09 in985.1 mb 0.00 in0.0 mm 0.00 in0.0 mm 0.00 in0.0 mm
02:58 AM 69.3°F20.7°C 61.6°F16.4°C 76% Calm Calm -- 29.09 in985.1 mb 0.00 in0.0 mm 0.00 in0.0 mm 0.00 in0.0 mm
02:57 AM 69.3°F20.7°C 61.6°F16.4°C 76% Calm Calm -- 29.09 in985.1 mb 0.00 in0.0 mm 0.00 in0.0 mm 0.00 in0.0 mm
02:56 AM 69.3°F20.7°C 61.6°F16.4°C 76% Calm Calm 3.9 mph6.3 kmh 29.09 in985.1 mb 0.00 in0.0 mm 0.00 in0.0 mm 0.00 in0.0 mm
02:55 AM 69.3°F20.7°C 61.6°F16.4°C 76% Calm Calm 3.9 mph6.3 kmh 29.09 in985.1 mb 0.00 in0.0 mm 0.00 in0.0 mm 0.00 in0.0 mm
02:54 AM 69.3°F20.7°C 61.6°F16.4°C 76% Calm Calm 3.9 mph6.3 kmh 29.09 in985.1 mb 0.00 in0.0 mm 0.00 in0.0 mm 0.00 in0.0 mm
02:53 AM 69.3°F20.7°C 61.6°F16.4°C 76% Calm Calm 3.9 mph6.3 kmh 29.09 in985.1 mb 0.00 in0.0 mm 0.00 in0.0 mm 0.00 in0.0 mm
02:52 AM 69.3°F20.7°C 61.6°F16.4°C 76% Calm Calm 3.9 mph6.3 kmh 29.09 in985.1 mb 0.00 in0.0 mm 0.00 in0.0 mm 0.00 in0.0 mm
02:51 AM 69.3°F20.7°C 61.6°F16.4°C 76% Calm Calm 3.9 mph6.3 kmh 29.09 in985.1 mb 0.00 in0.0 mm 0.00 in0.0 mm 0.00 in0.0 mm
02:50 AM 69.4°F20.8°C 61.7°F16.5°C 76% Calm Calm 3.9 mph6.3 kmh 29.09 in985.1 mb 0.00 in0.0 mm 0.00 in0.0 mm 0.00 in0.0 mm
02:49 AM 69.4°F20.8°C 61.7°F16.5°C 76% Calm Calm 3.9 mph6.3 kmh 29.09 in985.1 mb 0.00 in0.0 mm 0.00 in0.0 mm 0.00 in0.0 mm
02:48 AM 69.4°F20.8°C 61.7°F16.5°C 76% Calm Calm 4.5 mph7.2 kmh 29.09 in985.1 mb 0.00 in0.0 mm 0.00 in0.0 mm 0.00 in0.0 mm
02:47 AM 69.4°F20.8°C 61.7°F16.5°C 76% Calm Calm 4.5 mph7.2 kmh 29.09 in985.1 mb 0.00 in0.0 mm 0.00 in0.0 mm 0.00 in0.0 mm
02:46 AM 69.4°F20.8°C 61.7°F16.5°C 76% Calm Calm 5.2 mph8.4 kmh 29.09 in985.1 mb 0.00 in0.0 mm 0.00 in0.0 mm 0.00 in0.0 mm
02:45 AM 69.6°F20.9°C 61.9°F16.6°C 76% Calm Calm 5.2 mph8.4 kmh 29.09 in985.1 mb 0.00 in0.0 mm 0.00 in0.0 mm 0.00 in0.0 mm
02:44 AM 69.6°F20.9°C 61.9°F16.6°C 76% Calm Calm 5.2 mph8.4 kmh 29.09 in985.1 mb 0.00 in0.0 mm 0.00 in0.0 mm 0.00 in0.0 mm
02:43 AM 69.6°F20.9°C 61.9°F16.6°C 76% Calm Calm 5.2 mph8.4 kmh 29.09 in985.1 mb 0.00 in0.0 mm 0.00 in0.0 mm 0.00 in0.0 mm
02:42 AM 69.6°F20.9°C 61.9°F16.6°C 76% Calm Calm 5.2 mph8.4 kmh 29.09 in985.1 mb 0.00 in0.0 mm 0.00 in0.0 mm 0.00 in0.0 mm
02:41 AM 69.6°F20.9°C 61.9°F16.6°C 76% Calm Calm 5.2 mph8.4 kmh 29.09 in985.1 mb 0.00 in0.0 mm 0.00 in0.0 mm 0.00 in0.0 mm
02:40 AM 69.6°F20.9°C 61.9°F16.6°C 76% 3.0 mph WSW4.8 kmh WSW 5.2 mph8.4 kmh 29.09 in985.1 mb 0.00 in0.0 mm 0.00 in0.0 mm 0.00 in0.0 mm
02:39 AM 69.6°F20.9°C 61.9°F16.6°C 76% 3.0 mph WSW4.8 kmh WSW 5.2 mph8.4 kmh 29.09 in985.1 mb 0.00 in0.0 mm 0.00 in0.0 mm 0.00 in0.0 mm
02:38 AM 69.6°F20.9°C 61.9°F16.6°C 76% 3.0 mph WSW4.8 kmh WSW 6.5 mph10.5 kmh 29.09 in985.1 mb 0.00 in0.0 mm 0.00 in0.0 mm 0.00 in0.0 mm
02:37 AM 69.6°F20.9°C 61.9°F16.6°C 76% Calm Calm 6.5 mph10.5 kmh 29.09 in985.1 mb 0.00 in0.0 mm 0.00 in0.0 mm 0.00 in0.0 mm
02:36 AM 69.6°F20.9°C 61.9°F16.6°C 76% Calm Calm 6.5 mph10.5 kmh 29.09 in985.1 mb 0.00 in0.0 mm 0.00 in0.0 mm 0.00 in0.0 mm
02:35 AM 69.6°F20.9°C 61.9°F16.6°C 76% Calm Calm 6.5 mph10.5 kmh 29.09 in985.1 mb 0.00 in0.0 mm 0.00 in0.0 mm 0.00 in0.0 mm
02:34 AM 69.6°F20.9°C 61.9°F16.6°C 76% Calm Calm 6.5 mph10.5 kmh 29.09 in985.1 mb 0.00 in0.0 mm 0.00 in0.0 mm 0.00 in0.0 mm
02:32 AM 69.6°F20.9°C 61.9°F16.6°C 76% Calm Calm 6.5 mph10.5 kmh 29.09 in985.1 mb 0.00 in0.0 mm 0.00 in0.0 mm 0.00 in0.0 mm
02:31 AM 69.6°F20.9°C 61.9°F16.6°C 76% 3.0 mph WSW4.8 kmh WSW 6.5 mph10.5 kmh 29.09 in985.1 mb 0.00 in0.0 mm 0.00 in0.0 mm 0.00 in0.0 mm
02:30 AM 69.8°F21.0°C 61.7°F16.5°C 75% 3.0 mph WSW4.8 kmh WSW 6.5 mph10.5 kmh 29.09 in985.1 mb 0.00 in0.0 mm 0.00 in0.0 mm 0.00 in0.0 mm
02:29 AM 69.8°F21.0°C 61.7°F16.5°C 75% Calm Calm 6.5 mph10.5 kmh 29.09 in985.1 mb 0.00 in0.0 mm 0.00 in0.0 mm 0.00 in0.0 mm
02:28 AM 69.8°F21.0°C 61.7°F16.5°C 75% Calm Calm 6.5 mph10.5 kmh 29.09 in985.1 mb 0.00 in0.0 mm 0.00 in0.0 mm 0.00 in0.0 mm
02:27 AM 69.8°F21.0°C 61.7°F16.5°C 75% Calm Calm 6.5 mph10.5 kmh 29.09 in985.1 mb 0.00 in0.0 mm 0.00 in0.0 mm 0.00 in0.0 mm
02:26 AM 69.8°F21.0°C 61.7°F16.5°C 75% Calm Calm 6.5 mph10.5 kmh 29.09 in985.1 mb 0.00 in0.0 mm 0.00 in0.0 mm 0.00 in0.0 mm
02:25 AM 69.8°F21.0°C 61.7°F16.5°C 75% Calm Calm 6.5 mph10.5 kmh 29.09 in985.1 mb 0.00 in0.0 mm 0.00 in0.0 mm 0.00 in0.0 mm
02:24 AM 69.8°F21.0°C 61.7°F16.5°C 75% 3.0 mph WSW4.8 kmh WSW 6.5 mph10.5 kmh 29.09 in985.1 mb 0.00 in0.0 mm 0.00 in0.0 mm 0.00 in0.0 mm
02:23 AM 69.8°F21.0°C 61.7°F16.5°C 75% 3.0 mph WSW4.8 kmh WSW 6.5 mph10.5 kmh 29.09 in985.1 mb 0.00 in0.0 mm 0.00 in0.0 mm 0.00 in0.0 mm
02:22 AM 69.8°F21.0°C 61.7°F16.5°C 75% 3.0 mph WSW4.8 kmh WSW 6.5 mph10.5 kmh 29.09 in985.1 mb 0.00 in0.0 mm 0.00 in0.0 mm 0.00 in0.0 mm
02:21 AM 69.8°F21.0°C 61.7°F16.5°C 75% 3.0 mph WSW4.8 kmh WSW 6.5 mph10.5 kmh 29.09 in985.1 mb 0.00 in0.0 mm 0.00 in0.0 mm 0.00 in0.0 mm
02:20 AM 69.8°F21.0°C 62.1°F16.7°C 76% 3.0 mph WSW4.8 kmh WSW 5.8 mph9.3 kmh 29.09 in985.1 mb 0.00 in0.0 mm 0.00 in0.0 mm 0.00 in0.0 mm
02:19 AM 69.8°F21.0°C 62.1°F16.7°C 76% 3.0 mph WSW4.8 kmh WSW 5.8 mph9.3 kmh 29.09 in985.1 mb 0.00 in0.0 mm 0.00 in0.0 mm 0.00 in0.0 mm
02:18 AM 69.6°F20.9°C 61.9°F16.6°C 76% 3.0 mph WSW4.8 kmh WSW 5.8 mph9.3 kmh 29.09 in985.1 mb 0.00 in0.0 mm 0.00 in0.0 mm 0.00 in0.0 mm
02:17 AM 69.6°F20.9°C 61.9°F16.6°C 76% Calm Calm 5.8 mph9.3 kmh 29.09 in985.1 mb 0.00 in0.0 mm 0.00 in0.0 mm 0.00 in0.0 mm
02:16 AM 69.4°F20.8°C 61.8°F16.6°C 76% Calm Calm 5.8 mph9.3 kmh 29.09 in985.1 mb 0.00 in0.0 mm 0.00 in0.0 mm 0.00 in0.0 mm
02:15 AM 69.4°F20.8°C 61.8°F16.6°C 76% Calm Calm 5.8 mph9.3 kmh 29.09 in985.1 mb 0.00 in0.0 mm 0.00 in0.0 mm 0.00 in0.0 mm
02:14 AM 69.4°F20.8°C 61.8°F16.6°C 76% Calm Calm 5.8 mph9.3 kmh 29.09 in985.1 mb 0.00 in0.0 mm 0.00 in0.0 mm 0.00 in0.0 mm
02:13 AM 69.4°F20.8°C 61.8°F16.6°C 76% Calm Calm 5.8 mph9.3 kmh 29.09 in985.1 mb 0.00 in0.0 mm 0.00 in0.0 mm 0.00 in0.0 mm
02:12 AM 69.3°F20.7°C 61.7°F16.5°C 76% Calm Calm 5.8 mph9.3 kmh 29.09 in985.1 mb 0.00 in0.0 mm 0.00 in0.0 mm 0.00 in0.0 mm
02:11 AM 69.3°F20.7°C 61.2°F16.2°C 75% Calm Calm 5.8 mph9.3 kmh 29.09 in985.1 mb 0.00 in0.0 mm 0.00 in0.0 mm 0.00 in0.0 mm
02:10 AM 69.3°F20.7°C 61.2°F16.2°C 75% Calm Calm 5.8 mph9.3 kmh 29.09 in985.1 mb 0.00 in0.0 mm 0.00 in0.0 mm 0.00 in0.0 mm
02:09 AM 69.1°F20.6°C 61.0°F16.1°C 75% Calm Calm 5.8 mph9.3 kmh 29.09 in985.1 mb 0.00 in0.0 mm 0.00 in0.0 mm 0.00 in0.0 mm
02:08 AM 69.1°F20.6°C 61.0°F16.1°C 75% Calm Calm 5.8 mph9.3 kmh 29.09 in985.1 mb 0.00 in0.0 mm 0.00 in0.0 mm 0.00 in0.0 mm
02:07 AM 68.9°F20.5°C 60.9°F16.1°C 75% Calm Calm 5.8 mph9.3 kmh 29.09 in985.1 mb 0.00 in0.0 mm 0.00 in0.0 mm 0.00 in0.0 mm
02:06 AM 68.9°F20.5°C 60.9°F16.1°C 75% Calm Calm 5.8 mph9.3 kmh 29.09 in985.1 mb 0.00 in0.0 mm 0.00 in0.0 mm 0.00 in0.0 mm
02:05 AM 68.9°F20.5°C 60.9°F16.1°C 75% Calm Calm 5.8 mph9.3 kmh 29.09 in985.1 mb 0.00 in0.0 mm 0.00 in0.0 mm 0.00 in0.0 mm
02:04 AM 68.7°F20.4°C 60.7°F15.9°C 75% Calm Calm 5.2 mph8.4 kmh 29.09 in985.1 mb 0.00 in0.0 mm 0.00 in0.0 mm 0.00 in0.0 mm
02:03 AM 68.7°F20.4°C 60.2°F15.7°C 74% Calm Calm 5.2 mph8.4 kmh 29.09 in985.1 mb 0.00 in0.0 mm 0.00 in0.0 mm 0.00 in0.0 mm
02:02 AM 68.7°F20.4°C 60.2°F15.7°C 74% 3.0 mph WSW4.8 kmh WSW 5.2 mph8.4 kmh 29.09 in985.1 mb 0.00 in0.0 mm 0.00 in0.0 mm 0.00 in0.0 mm
02:01 AM 68.7°F20.4°C 60.2°F15.7°C 74% 3.0 mph WSW4.8 kmh WSW 5.2 mph8.4 kmh 29.09 in985.1 mb 0.00 in0.0 mm 0.00 in0.0 mm 0.00 in0.0 mm
02:00 AM 68.5°F20.3°C 60.0°F15.6°C 74% 3.0 mph WSW4.8 kmh WSW 5.2 mph8.4 kmh 29.09 in985.1 mb 0.00 in0.0 mm 0.00 in0.0 mm 0.00 in0.0 mm
01:59 AM 68.5°F20.3°C 60.0°F15.6°C 74% Calm Calm 5.2 mph8.4 kmh 29.09 in985.1 mb 0.00 in0.0 mm 0.00 in0.0 mm 0.00 in0.0 mm
01:58 AM 68.5°F20.3°C 60.0°F15.6°C 74% Calm Calm 5.2 mph8.4 kmh 29.09 in985.1 mb 0.00 in0.0 mm 0.00 in0.0 mm 0.00 in0.0 mm
01:57 AM 68.5°F20.3°C 60.0°F15.6°C 74% Calm Calm 5.2 mph8.4 kmh 29.09 in985.1 mb 0.00 in0.0 mm 0.00 in0.0 mm 0.00 in0.0 mm
01:56 AM 68.5°F20.3°C 60.0°F15.6°C 74% Calm Calm 5.2 mph8.4 kmh 29.09 in985.1 mb 0.00 in0.0 mm 0.00 in0.0 mm 0.00 in0.0 mm
01:55 AM 68.5°F20.3°C 60.0°F15.6°C 74% Calm Calm 6.5 mph10.5 kmh 29.09 in985.1 mb 0.00 in0.0 mm 0.00 in0.0 mm 0.00 in0.0 mm
01:54 AM 68.5°F20.3°C 60.0°F15.6°C 74% Calm Calm 6.5 mph10.5 kmh 29.09 in985.1 mb 0.00 in0.0 mm 0.00 in0.0 mm 0.00 in0.0 mm
01:53 AM 68.5°F20.3°C 60.0°F15.6°C 74% Calm Calm 6.5 mph10.5 kmh 29.09 in985.1 mb 0.00 in0.0 mm 0.00 in0.0 mm 0.00 in0.0 mm
01:52 AM 68.5°F20.3°C 60.0°F15.6°C 74% Calm Calm 6.5 mph10.5 kmh 29.09 in985.1 mb 0.00 in0.0 mm 0.00 in0.0 mm 0.00 in0.0 mm
01:51 AM 68.5°F20.3°C 60.0°F15.6°C 74% Calm Calm 6.5 mph10.5 kmh 29.09 in985.1 mb 0.00 in0.0 mm 0.00 in0.0 mm 0.00 in0.0 mm
01:50 AM 68.5°F20.3°C 60.0°F15.6°C 74% Calm Calm 6.5 mph10.5 kmh 29.09 in985.1 mb 0.00 in0.0 mm 0.00 in0.0 mm 0.00 in0.0 mm
01:49 AM 68.5°F20.3°C 60.1°F15.6°C 74% 3.0 mph WSW4.8 kmh WSW 6.5 mph10.5 kmh 29.09 in985.1 mb 0.00 in0.0 mm 0.00 in0.0 mm 0.00 in0.0 mm
01:48 AM 68.4°F20.2°C 60.0°F15.6°C 74% 3.0 mph WSW4.8 kmh WSW 6.5 mph10.5 kmh 29.09 in985.1 mb 0.00 in0.0 mm 0.00 in0.0 mm 0.00 in0.0 mm
01:47 AM 68.4°F20.2°C 59.5°F15.3°C 73% 3.0 mph WSW4.8 kmh WSW 6.5 mph10.5 kmh 29.09 in985.1 mb 0.00 in0.0 mm 0.00 in0.0 mm 0.00 in0.0 mm
01:46 AM 68.2°F20.1°C 59.3°F15.2°C 73% 3.0 mph WSW4.8 kmh WSW 5.8 mph9.3 kmh 29.09 in985.1 mb 0.00 in0.0 mm 0.00 in0.0 mm 0.00 in0.0 mm
01:45 AM 68.2°F20.1°C 59.3°F15.2°C 73% 3.0 mph WSW4.8 kmh WSW 5.8 mph9.3 kmh 29.09 in985.1 mb 0.00 in0.0 mm 0.00 in0.0 mm 0.00 in0.0 mm
01:44 AM 68.2°F20.1°C 59.3°F15.2°C 73% 3.0 mph WSW4.8 kmh WSW 5.8 mph9.3 kmh 29.09 in985.1 mb 0.00 in0.0 mm 0.00 in0.0 mm 0.00 in0.0 mm
01:43 AM 68.2°F20.1°C 59.3°F15.2°C 73% Calm Calm 3.2 mph5.1 kmh 29.09 in985.1 mb 0.00 in0.0 mm 0.00 in0.0 mm 0.00 in0.0 mm
01:42 AM 68.2°F20.1°C 59.3°F15.2°C 73% Calm Calm 3.2 mph5.1 kmh 29.09 in985.1 mb 0.00 in0.0 mm 0.00 in0.0 mm 0.00 in0.0 mm
01:41 AM 68.2°F20.1°C 59.3°F15.2°C 73% Calm Calm 3.2 mph5.1 kmh 29.09 in985.1 mb 0.00 in0.0 mm 0.00 in0.0 mm 0.00 in0.0 mm
01:40 AM 68.2°F20.1°C 59.3°F15.2°C 73% Calm Calm 3.2 mph5.1 kmh 29.09 in985.1 mb 0.00 in0.0 mm 0.00 in0.0 mm 0.00 in0.0 mm
01:39 AM 68.2°F20.1°C 59.3°F15.2°C 73% Calm Calm 3.2 mph5.1 kmh 29.09 in985.1 mb 0.00 in0.0 mm 0.00 in0.0 mm 0.00 in0.0 mm
01:38 AM 68.0°F20.0°C 59.1°F15.1°C 73% Calm Calm 3.2 mph5.1 kmh 29.09 in985.1 mb 0.00 in0.0 mm 0.00 in0.0 mm 0.00 in0.0 mm
01:37 AM 68.0°F20.0°C 59.1°F15.1°C 73% Calm Calm 3.2 mph5.1 kmh 29.09 in985.1 mb 0.00 in0.0 mm 0.00 in0.0 mm 0.00 in0.0 mm
01:36 AM 68.0°F20.0°C 58.7°F14.8°C 72% Calm Calm 3.7 mph6.0 kmh 29.09 in985.1 mb 0.00 in0.0 mm 0.00 in0.0 mm 0.00 in0.0 mm
01:35 AM 68.0°F20.0°C 58.7°F14.8°C 72% Calm Calm 5.2 mph8.4 kmh 29.09 in985.1 mb 0.00 in0.0 mm 0.00 in0.0 mm 0.00 in0.0 mm
01:34 AM 68.0°F20.0°C 58.7°F14.8°C 72% Calm Calm 5.2 mph8.4 kmh 29.09 in985.1 mb 0.00 in0.0 mm 0.00 in0.0 mm 0.00 in0.0 mm
01:33 AM 68.0°F20.0°C 58.7°F14.8°C 72% Calm Calm 5.2 mph8.4 kmh 29.09 in985.1 mb 0.00 in0.0 mm 0.00 in0.0 mm 0.00 in0.0 mm
01:32 AM 68.0°F20.0°C 58.7°F14.8°C 72% Calm Calm 5.2 mph8.4 kmh 29.09 in985.1 mb 0.00 in0.0 mm 0.00 in0.0 mm 0.00 in0.0 mm
01:31 AM 68.2°F20.1°C 58.9°F14.9°C 72% Calm Calm 5.2 mph8.4 kmh 29.09 in985.1 mb 0.00 in0.0 mm 0.00 in0.0 mm 0.00 in0.0 mm
01:30 AM 68.2°F20.1°C 58.9°F14.9°C 72% Calm Calm 5.2 mph8.4 kmh 29.09 in985.1 mb 0.00 in0.0 mm 0.00 in0.0 mm 0.00 in0.0 mm
01:29 AM 68.2°F20.1°C 58.9°F14.9°C 72% Calm Calm 5.2 mph8.4 kmh 29.09 in985.1 mb 0.00 in0.0 mm 0.00 in0.0 mm 0.00 in0.0 mm
01:28 AM 68.2°F20.1°C 58.9°F14.9°C 72% Calm Calm 5.2 mph8.4 kmh 29.09 in985.1 mb 0.00 in0.0 mm 0.00 in0.0 mm 0.00 in0.0 mm
01:27 AM 68.2°F20.1°C 58.9°F14.9°C 72% 3.7 mph WSW6.0 kmh WSW 5.2 mph8.4 kmh 29.09 in985.1 mb 0.00 in0.0 mm 0.00 in0.0 mm 0.00 in0.0 mm
01:26 AM 68.2°F20.1°C 58.9°F14.9°C 72% 3.7 mph WSW6.0 kmh WSW 5.2 mph8.4 kmh 29.09 in985.1 mb 0.00 in0.0 mm 0.00 in0.0 mm 0.00 in0.0 mm
01:25 AM 68.2°F20.1°C 58.9°F14.9°C 72% 3.0 mph SW4.8 kmh SW 5.2 mph8.4 kmh 29.09 in985.1 mb 0.00 in0.0 mm 0.00 in0.0 mm 0.00 in0.0 mm
01:24 AM 68.2°F20.1°C 58.9°F14.9°C 72% 3.0 mph SW4.8 kmh SW 5.2 mph8.4 kmh 29.09 in985.1 mb 0.00 in0.0 mm 0.00 in0.0 mm 0.00 in0.0 mm
01:23 AM 68.2°F20.1°C 58.9°F14.9°C 72% 3.0 mph SW4.8 kmh SW 5.2 mph8.4 kmh 29.09 in985.1 mb 0.00 in0.0 mm 0.00 in0.0 mm 0.00 in0.0 mm
01:22 AM 68.2°F20.1°C 58.9°F14.9°C 72% Calm Calm 5.2 mph8.4 kmh 29.09 in985.1 mb 0.00 in0.0 mm 0.00 in0.0 mm 0.00 in0.0 mm
01:21 AM 68.2°F20.1°C 58.9°F14.9°C 72% Calm Calm 5.8 mph9.3 kmh 29.09 in985.1 mb 0.00 in0.0 mm 0.00 in0.0 mm 0.00 in0.0 mm
01:20 AM 68.2°F20.1°C 58.9°F14.9°C 72% Calm Calm 5.8 mph9.3 kmh 29.09 in985.1 mb 0.00 in0.0 mm 0.00 in0.0 mm 0.00 in0.0 mm
01:19 AM 68.0°F20.0°C 58.7°F14.8°C 72% Calm Calm 5.8 mph9.3 kmh 29.09 in985.1 mb 0.00 in0.0 mm 0.00 in0.0 mm 0.00 in0.0 mm
01:18 AM 68.0°F20.0°C 58.7°F14.8°C 72% Calm Calm 5.8 mph9.3 kmh 29.09 in985.1 mb 0.00 in0.0 mm 0.00 in0.0 mm 0.00 in0.0 mm
01:17 AM 68.0°F20.0°C 58.7°F14.8°C 72% 3.0 mph SW4.8 kmh SW 5.8 mph9.3 kmh 29.09 in985.1 mb 0.00 in0.0 mm 0.00 in0.0 mm 0.00 in0.0 mm
01:16 AM 67.8°F19.9°C 58.5°F14.7°C 72% 3.0 mph SW4.8 kmh SW 5.8 mph9.3 kmh 29.09 in985.1 mb 0.00 in0.0 mm 0.00 in0.0 mm 0.00 in0.0 mm
01:15 AM 67.8°F19.9°C 58.5°F14.7°C 72% 3.0 mph SW4.8 kmh SW 5.8 mph9.3 kmh 29.09 in985.1 mb 0.00 in0.0 mm 0.00 in0.0 mm 0.00 in0.0 mm
01:14 AM 67.8°F19.9°C 58.5°F14.7°C 72% 3.0 mph SW4.8 kmh SW 5.8 mph9.3 kmh 29.09 in985.1 mb 0.00 in0.0 mm 0.00 in0.0 mm 0.00 in0.0 mm
01:13 AM 67.8°F19.9°C 58.1°F14.5°C 71% 3.0 mph SW4.8 kmh SW 5.8 mph9.3 kmh 29.09 in985.1 mb 0.00 in0.0 mm 0.00 in0.0 mm 0.00 in0.0 mm
01:12 AM 67.8°F19.9°C 58.1°F14.5°C 71% Calm Calm 5.8 mph9.3 kmh 29.09 in985.1 mb 0.00 in0.0 mm 0.00 in0.0 mm 0.00 in0.0 mm
01:11 AM 67.8°F19.9°C 58.1°F14.5°C 71% Calm Calm 3.9 mph6.3 kmh 29.09 in985.1 mb 0.00 in0.0 mm 0.00 in0.0 mm 0.00 in0.0 mm
01:10 AM 67.8°F19.9°C 58.1°F14.5°C 71% Calm Calm 3.9 mph6.3 kmh 29.09 in985.1 mb 0.00 in0.0 mm 0.00 in0.0 mm 0.00 in0.0 mm
01:09 AM 67.8°F19.9°C 58.1°F14.5°C 71% Calm Calm 3.9 mph6.3 kmh 29.09 in985.1 mb 0.00 in0.0 mm 0.00 in0.0 mm 0.00 in0.0 mm
01:08 AM 67.8°F19.9°C 58.1°F14.5°C 71% Calm Calm 3.2 mph5.1 kmh 29.09 in985.1 mb 0.00 in0.0 mm 0.00 in0.0 mm 0.00 in0.0 mm
01:07 AM 67.8°F19.9°C 58.1°F14.5°C 71% Calm Calm 3.2 mph5.1 kmh 29.09 in985.1 mb 0.00 in0.0 mm 0.00 in0.0 mm 0.00 in0.0 mm
01:06 AM 67.8°F19.9°C 58.1°F14.5°C 71% Calm Calm -- 29.09 in985.1 mb 0.00 in0.0 mm 0.00 in0.0 mm 0.00 in0.0 mm
01:05 AM 67.8°F19.9°C 58.1°F14.5°C 71% Calm Calm -- 29.09 in985.1 mb 0.00 in0.0 mm 0.00 in0.0 mm 0.00 in0.0 mm
01:04 AM 67.8°F19.9°C 58.1°F14.5°C 71% Calm Calm -- 29.09 in985.1 mb 0.00 in0.0 mm 0.00 in0.0 mm 0.00 in0.0 mm
01:03 AM 67.8°F19.9°C 58.1°F14.5°C 71% Calm Calm -- 29.09 in985.1 mb 0.00 in0.0 mm 0.00 in0.0 mm 0.00 in0.0 mm
01:02 AM 67.8°F19.9°C 58.1°F14.5°C 71% Calm Calm -- 29.09 in985.1 mb 0.00 in0.0 mm 0.00 in0.0 mm 0.00 in0.0 mm
01:01 AM 67.8°F19.9°C 58.1°F14.5°C 71% Calm Calm -- 29.09 in985.1 mb 0.00 in0.0 mm 0.00 in0.0 mm 0.00 in0.0 mm
01:00 AM 67.8°F19.9°C 58.1°F14.5°C 71% Calm Calm -- 29.09 in985.1 mb 0.00 in0.0 mm 0.00 in0.0 mm 0.00 in0.0 mm
12:59 AM 67.8°F19.9°C 58.1°F14.5°C 71% Calm Calm -- 29.09 in985.1 mb 0.00 in0.0 mm 0.00 in0.0 mm 0.00 in0.0 mm
12:58 AM 67.8°F19.9°C 58.1°F14.5°C 71% Calm Calm -- 29.09 in985.1 mb 0.00 in0.0 mm 0.00 in0.0 mm 0.00 in0.0 mm
12:57 AM 67.8°F19.9°C 58.1°F14.5°C 71% Calm Calm -- 29.09 in985.1 mb 0.00 in0.0 mm 0.00 in0.0 mm 0.00 in0.0 mm
12:56 AM 67.8°F19.9°C 58.1°F14.5°C 71% Calm Calm -- 29.09 in985.1 mb 0.00 in0.0 mm 0.00 in0.0 mm 0.00 in0.0 mm
12:55 AM 67.8°F19.9°C 58.1°F14.5°C 71% Calm Calm -- 29.09 in985.1 mb 0.00 in0.0 mm 0.00 in0.0 mm 0.00 in0.0 mm
12:54 AM 67.8°F19.9°C 58.1°F14.5°C 71% Calm Calm -- 29.09 in985.1 mb 0.00 in0.0 mm 0.00 in0.0 mm 0.00 in0.0 mm
12:53 AM 67.8°F19.9°C 58.1°F14.5°C 71% Calm Calm -- 29.09 in985.1 mb 0.00 in0.0 mm 0.00 in0.0 mm 0.00 in0.0 mm
12:52 AM 67.8°F19.9°C 57.6°F14.2°C 70% Calm Calm -- 29.09 in985.1 mb 0.00 in0.0 mm 0.00 in0.0 mm 0.00 in0.0 mm
12:51 AM 67.8°F19.9°C 57.6°F14.2°C 70% Calm Calm -- 29.12 in986.1 mb 0.00 in0.0 mm 0.00 in0.0 mm 0.00 in0.0 mm
12:50 AM 67.8°F19.9°C 57.6°F14.2°C 70% Calm Calm -- 29.12 in986.1 mb 0.00 in0.0 mm 0.00 in0.0 mm 0.00 in0.0 mm
12:49 AM 67.8°F19.9°C 57.6°F14.2°C 70% Calm Calm -- 29.12 in986.1 mb 0.00 in0.0 mm 0.00 in0.0 mm 0.00 in0.0 mm
12:48 AM 67.8°F19.9°C 57.6°F14.2°C 70% Calm Calm -- 29.12 in986.1 mb 0.00 in0.0 mm 0.00 in0.0 mm 0.00 in0.0 mm
12:47 AM 67.8°F19.9°C 57.6°F14.2°C 70% Calm Calm -- 29.12 in986.1 mb 0.00 in0.0 mm 0.00 in0.0 mm 0.00 in0.0 mm
12:46 AM 67.8°F19.9°C 57.6°F14.2°C 70% Calm Calm -- 29.12 in986.1 mb 0.00 in0.0 mm 0.00 in0.0 mm 0.00 in0.0 mm
12:45 AM 67.8°F19.9°C 57.6°F14.2°C 70% Calm Calm -- 29.12 in986.1 mb 0.00 in0.0 mm 0.00 in0.0 mm 0.00 in0.0 mm
12:44 AM 67.8°F19.9°C 57.6°F14.2°C 70% Calm Calm -- 29.12 in986.1 mb 0.00 in0.0 mm 0.00 in0.0 mm 0.00 in0.0 mm
12:43 AM 67.8°F19.9°C 57.6°F14.2°C 70% Calm Calm -- 29.12 in986.1 mb 0.00 in0.0 mm 0.00 in0.0 mm 0.00 in0.0 mm
12:42 AM 67.8°F19.9°C 57.6°F14.2°C 70% Calm Calm -- 29.12 in986.1 mb 0.00 in0.0 mm 0.00 in0.0 mm 0.00 in0.0 mm
12:41 AM 67.8°F19.9°C 57.6°F14.2°C 70% Calm Calm -- 29.12 in986.1 mb 0.00 in0.0 mm 0.00 in0.0 mm 0.00 in0.0 mm
12:40 AM 67.8°F19.9°C 57.6°F14.2°C 70% Calm Calm -- 29.12 in986.1 mb 0.00 in0.0 mm 0.00 in0.0 mm 0.00 in0.0 mm
12:39 AM 67.8°F19.9°C 57.6°F14.2°C 70% Calm Calm -- 29.12 in986.1 mb 0.00 in0.0 mm 0.00 in0.0 mm 0.00 in0.0 mm
12:38 AM 67.8°F19.9°C 57.6°F14.2°C 70% Calm Calm -- 29.12 in986.1 mb 0.00 in0.0 mm 0.00 in0.0 mm 0.00 in0.0 mm
12:37 AM 67.8°F19.9°C 57.2°F14.0°C 68% Calm Calm -- 29.12 in986.1 mb 0.00 in0.0 mm 0.00 in0.0 mm 0.00 in0.0 mm
12:36 AM 67.8°F19.9°C 57.2°F14.0°C 68% Calm Calm -- 29.09 in985.1 mb 0.00 in0.0 mm 0.00 in0.0 mm 0.00 in0.0 mm
12:35 AM 67.8°F19.9°C 57.2°F14.0°C 68% Calm Calm -- 29.09 in985.1 mb 0.00 in0.0 mm 0.00 in0.0 mm 0.00 in0.0 mm
12:34 AM 67.8°F19.9°C 57.2°F14.0°C 68% Calm Calm -- 29.09 in985.1 mb 0.00 in0.0 mm 0.00 in0.0 mm 0.00 in0.0 mm
12:33 AM 67.8°F19.9°C 57.2°F14.0°C 68% Calm Calm -- 29.09 in985.1 mb 0.00 in0.0 mm 0.00 in0.0 mm 0.00 in0.0 mm
12:32 AM 67.8°F19.9°C 57.2°F14.0°C 68% Calm Calm -- 29.09 in985.1 mb 0.00 in0.0 mm 0.00 in0.0 mm 0.00 in0.0 mm
12:31 AM 67.8°F19.9°C 57.2°F14.0°C 68% Calm Calm -- 29.09 in985.1 mb 0.00 in0.0 mm 0.00 in0.0 mm 0.00 in0.0 mm
12:30 AM 68.0°F20.0°C 57.4°F14.1°C 68% Calm Calm -- 29.09 in985.1 mb 0.00 in0.0 mm 0.00 in0.0 mm 0.00 in0.0 mm
12:29 AM 68.0°F20.0°C 57.4°F14.1°C 68% Calm Calm -- 29.09 in985.1 mb 0.00 in0.0 mm 0.00 in0.0 mm 0.00 in0.0 mm
12:28 AM 68.0°F20.0°C 57.4°F14.1°C 68% Calm Calm -- 29.09 in985.1 mb 0.00 in0.0 mm 0.00 in0.0 mm 0.00 in0.0 mm
12:27 AM 68.0°F20.0°C 56.9°F13.8°C 67% Calm Calm -- 29.09 in985.1 mb 0.00 in0.0 mm 0.00 in0.0 mm 0.00 in0.0 mm
12:26 AM 68.0°F20.0°C 56.9°F13.8°C 67% Calm Calm -- 29.09 in985.1 mb 0.00 in0.0 mm 0.00 in0.0 mm 0.00 in0.0 mm
12:25 AM 68.0°F20.0°C 56.9°F13.8°C 67% Calm Calm -- 29.09 in985.1 mb 0.00 in0.0 mm 0.00 in0.0 mm 0.00 in0.0 mm
12:24 AM 68.0°F20.0°C 56.9°F13.8°C 67% Calm Calm -- 29.09 in985.1 mb 0.00 in0.0 mm 0.00 in0.0 mm 0.00 in0.0 mm
12:23 AM 68.2°F20.1°C 57.1°F13.9°C 67% Calm Calm -- 29.09 in985.1 mb 0.00 in0.0 mm 0.00 in0.0 mm 0.00 in0.0 mm
12:22 AM 68.2°F20.1°C 57.1°F13.9°C 67% Calm Calm -- 29.09 in985.1 mb 0.00 in0.0 mm 0.00 in0.0 mm 0.00 in0.0 mm
12:21 AM 68.2°F20.1°C 57.1°F13.9°C 67% Calm Calm -- 29.09 in985.1 mb 0.00 in0.0 mm 0.00 in0.0 mm 0.00 in0.0 mm
12:20 AM 68.2°F20.1°C 57.1°F13.9°C 67% Calm Calm -- 29.09 in985.1 mb 0.00 in0.0 mm 0.00 in0.0 mm 0.00 in0.0 mm
12:19 AM 68.2°F20.1°C 57.1°F13.9°C 67% Calm Calm -- 29.09 in985.1 mb 0.00 in0.0 mm 0.00 in0.0 mm 0.00 in0.0 mm
12:18 AM 68.2°F20.1°C 57.1°F13.9°C 67% Calm Calm -- 29.09 in985.1 mb 0.00 in0.0 mm 0.00 in0.0 mm 0.00 in0.0 mm
12:17 AM 68.2°F20.1°C 57.1°F13.9°C 67% Calm Calm -- 29.09 in985.1 mb 0.00 in0.0 mm 0.00 in0.0 mm 0.00 in0.0 mm
12:16 AM 68.2°F20.1°C 57.1°F13.9°C 67% Calm Calm -- 29.09 in985.1 mb 0.00 in0.0 mm 0.00 in0.0 mm 0.00 in0.0 mm
12:15 AM 68.2°F20.1°C 57.1°F13.9°C 67% Calm Calm -- 29.09 in985.1 mb 0.00 in0.0 mm 0.00 in0.0 mm 0.00 in0.0 mm
12:13 AM 68.2°F20.1°C 57.1°F13.9°C 67% Calm Calm -- 29.09 in985.1 mb 0.00 in0.0 mm 0.00 in0.0 mm 0.00 in0.0 mm
12:12 AM 68.2°F20.1°C 57.1°F13.9°C 67% Calm Calm -- 29.09 in985.1 mb 0.00 in0.0 mm 0.00 in0.0 mm 0.00 in0.0 mm
12:11 AM 68.2°F20.1°C 57.1°F13.9°C 67% Calm Calm -- 29.09 in985.1 mb 0.00 in0.0 mm 0.00 in0.0 mm 0.00 in0.0 mm
12:10 AM 68.2°F20.1°C 57.1°F13.9°C 67% Calm Calm -- 29.09 in985.1 mb 0.00 in0.0 mm 0.00 in0.0 mm 0.00 in0.0 mm
12:09 AM 68.4°F20.2°C 57.3°F14.1°C 67% Calm Calm -- 29.09 in985.1 mb 0.00 in0.0 mm 0.00 in0.0 mm 0.00 in0.0 mm
12:08 AM 68.4°F20.2°C 57.3°F14.1°C 67% Calm Calm -- 29.09 in985.1 mb 0.00 in0.0 mm 0.00 in0.0 mm 0.00 in0.0 mm
12:07 AM 68.4°F20.2°C 56.8°F13.8°C 66% Calm Calm -- 29.09 in985.1 mb 0.00 in0.0 mm 0.00 in0.0 mm 0.00 in0.0 mm
12:06 AM 68.4°F20.2°C 56.8°F13.8°C 66% Calm Calm -- 29.09 in985.1 mb 0.00 in0.0 mm 0.00 in0.0 mm 0.00 in0.0 mm
12:05 AM 68.4°F20.2°C 56.8°F13.8°C 66% Calm Calm -- 29.09 in985.1 mb 0.00 in0.0 mm 0.00 in0.0 mm 0.00 in0.0 mm
12:04 AM 68.4°F20.2°C 56.8°F13.8°C 66% Calm Calm -- 29.09 in985.1 mb 0.00 in0.0 mm 0.00 in0.0 mm 0.00 in0.0 mm
12:03 AM 68.4°F20.2°C 56.8°F13.8°C 66% Calm Calm -- 29.09 in985.1 mb 0.00 in0.0 mm 0.00 in0.0 mm 0.00 in0.0 mm
12:02 AM 68.4°F20.2°C 56.8°F13.8°C 66% Calm Calm -- 29.09 in985.1 mb 0.00 in0.0 mm 0.00 in0.0 mm 0.00 in0.0 mm
12:01 AM 68.4°F20.2°C 56.8°F13.8°C 66% Calm Calm -- 29.09 in985.1 mb 0.00 in0.0 mm 0.00 in0.0 mm 0.00 in0.0 mm
12:00 AM 68.4°F20.2°C 56.8°F13.8°C 66% Calm Calm -- 29.09 in985.1 mb 0.00 in0.0 mm 0.00 in0.0 mm 0.00 in0.0 mm